Time;durP1;ratioP1;P1;durP2;ratioP2;P2;SDS_P1;SDS_P2;PMS_P1;PMS_P2;Temp;Humidity;BMP_temperature;BMP_pressure;BME280_temperature;BME280_humidity;BME280_pressure;Samples;Min_cycle;Max_cycle;Signal;HPM_P1;HPM_P2
2021/12/19 00:01:01;;;;;;;16.38;5.70;;;7.50;99.90;;;;;;5088934;28;20051;-67
2021/12/19 00:11:10;;;;;;;20.48;7.55;;;7.50;99.90;;;;;;5113101;27;20060;-67
2021/12/19 00:13:37;;;;;;;16.35;7.55;;;7.50;99.90;;;;;;5090463;28;20089;-66
2021/12/19 00:16:03;;;;;;;15.82;7.40;;;7.60;99.90;;;;;;5111058;28;20044;-66
2021/12/19 00:18:28;;;;;;;16.52;7.15;;;7.60;99.90;;;;;;5110482;28;20043;-66
2021/12/19 00:20:54;;;;;;;19.15;7.97;;;7.60;99.90;;;;;;5111384;28;20107;-67
2021/12/19 00:23:19;;;;;;;18.48;7.78;;;7.60;99.90;;;;;;5084129;28;20531;-66
2021/12/19 00:25:45;;;;;;;14.40;7.35;;;7.60;99.90;;;;;;5108820;28;20039;-66
2021/12/19 00:28:11;;;;;;;20.70;8.48;;;7.60;99.90;;;;;;5108960;28;20046;-67
2021/12/19 00:30:36;;;;;;;24.70;8.52;;;7.60;99.90;;;;;;5107520;28;20055;-67
2021/12/19 00:33:02;;;;;;;15.05;6.55;;;7.60;99.90;;;;;;5107908;28;20058;-66
2021/12/19 00:35:28;;;;;;;13.32;6.55;;;7.60;99.90;;;;;;5098687;28;20408;-66
2021/12/19 00:37:54;;;;;;;19.98;6.90;;;7.60;99.90;;;;;;5106547;28;20107;-66
2021/12/19 00:40:20;;;;;;;12.13;5.82;;;7.60;99.90;;;;;;5097328;28;20090;-67
2021/12/19 00:43:02;;;;;;;13.95;5.18;;;7.70;99.90;;;;;;5098426;28;20591;-65
2021/12/19 00:45:34;;;;;;;15.98;3.83;;;7.60;99.90;;;;;;5098697;28;20044;-68
2021/12/19 00:48:00;;;;;;;8.15;3.28;;;7.60;99.90;;;;;;5097866;28;20059;-66
2021/12/19 00:50:27;;;;;;;9.70;2.63;;;7.60;99.90;;;;;;5097745;28;20441;-66
2021/12/19 00:52:53;;;;;;;5.07;2.60;;;7.60;99.90;;;;;;5099476;28;20082;-65
2021/12/19 00:55:21;;;;;;;5.80;2.15;;;7.60;99.90;;;;;;5100976;28;20039;-65
2021/12/19 00:57:47;;;;;;;;;;;7.50;99.90;;;;;;5110262;27;20047;-64
2021/12/19 01:00:16;;;;;;;3.22;1.58;;;7.50;99.90;;;;;;5096577;28;20470;-64
2021/12/19 01:02:42;;;;;;;10.95;1.77;;;7.50;99.90;;;;;;5097348;28;20102;-66
2021/12/19 01:05:09;;;;;;;6.38;1.23;;;7.40;99.90;;;;;;5097296;28;20556;-66
2021/12/19 01:07:34;;;;;;;2.30;1.00;;;7.40;99.90;;;;;;5108037;28;20035;-67
2021/12/19 01:10:00;;;;;;;3.03;0.88;;;7.40;99.90;;;;;;5104229;28;20069;-67
2021/12/19 01:12:26;;;;;;;1.85;0.90;;;7.30;99.90;;;;;;5096360;28;20069;-66
2021/12/19 01:14:53;;;;;;;4.20;1.05;;;7.30;99.90;;;;;;5093753;28;20454;-67
2021/12/19 01:17:19;;;;;;;4.20;0.93;;;7.30;99.90;;;;;;5091975;28;20083;-65
2021/12/19 01:19:45;;;;;;;6.05;1.00;;;7.30;99.90;;;;;;5062024;28;20118;-66
2021/12/19 01:22:11;;;;;;;5.45;1.30;;;7.30;99.90;;;;;;5081473;28;20097;-66
2021/12/19 01:24:37;;;;;;;3.65;1.38;;;7.30;99.90;;;;;;5104834;28;20533;-65
2021/12/19 01:27:07;;;;;;;8.80;1.70;;;7.20;99.90;;;;;;5093581;28;20083;-66
2021/12/19 01:29:32;;;;;;;3.55;1.20;;;7.20;99.90;;;;;;5108782;28;20418;-66
2021/12/19 01:31:58;;;;;;;4.45;1.35;;;7.20;99.90;;;;;;5104673;28;20065;-66
2021/12/19 01:34:23;;;;;;;7.57;1.52;;;7.20;99.90;;;;;;5087312;28;20042;-65
2021/12/19 01:36:49;;;;;;;3.78;1.40;;;7.20;99.90;;;;;;5106301;28;20470;-66
2021/12/19 01:39:15;;;;;;;5.68;1.50;;;7.20;99.90;;;;;;5104804;28;20085;-66
2021/12/19 01:42:11;;;;;;;4.55;1.73;;;7.20;99.90;;;;;;5106118;28;20046;-68
2021/12/19 01:44:37;;;;;;;8.65;1.80;;;7.20;99.90;;;;;;5100777;28;20048;-66
2021/12/19 01:47:03;;;;;;;3.58;1.90;;;7.20;99.90;;;;;;5115475;28;20050;-66
2021/12/19 01:49:29;;;;;;;6.00;2.08;;;7.20;99.90;;;;;;5111648;28;20063;-65
2021/12/19 01:51:54;;;;;;;8.25;1.70;;;7.20;99.90;;;;;;5079100;28;20546;-65
2021/12/19 01:54:20;;;;;;;7.50;1.42;;;7.20;99.90;;;;;;5096984;28;20072;-65
2021/12/19 01:56:46;;;;;;;5.28;1.55;;;7.20;99.90;;;;;;5112381;28;20035;-65
2021/12/19 01:59:12;;;;;;;6.90;1.80;;;7.20;99.90;;;;;;5087946;28;20043;-67
2021/12/19 02:01:55;;;;;;;5.10;1.88;;;7.20;99.90;;;;;;5102632;28;20052;-65
2021/12/19 02:04:22;;;;;;;8.15;1.92;;;7.20;99.90;;;;;;5103763;28;20096;-65
2021/12/19 02:06:49;;;;;;;13.43;2.83;;;7.20;99.90;;;;;;5096864;28;20369;-66
2021/12/19 02:09:15;;;;;;;4.90;1.95;;;7.20;99.90;;;;;;5104080;28;20043;-66
2021/12/19 02:11:42;;;;;;;8.57;1.60;;;7.20;99.90;;;;;;5109527;28;20123;-65
2021/12/19 02:14:09;;;;;;;2.75;1.20;;;7.20;99.90;;;;;;5104850;28;20079;-66
2021/12/19 02:16:37;;;;;;;1.67;1.20;;;7.10;99.90;;;;;;5094687;28;20093;-66
2021/12/19 02:19:05;;;;;;;3.75;1.02;;;7.10;99.90;;;;;;5094588;28;20040;-66
2021/12/19 02:21:30;;;;;;;4.82;1.13;;;7.10;99.90;;;;;;5076958;28;20052;-66
2021/12/19 02:23:57;;;;;;;4.72;1.30;;;7.10;99.90;;;;;;5090953;28;20097;-65
2021/12/19 02:26:23;;;;;;;5.45;1.50;;;7.00;99.90;;;;;;5094457;28;20048;-66
2021/12/19 02:28:48;;;;;;;2.75;0.85;;;7.00;99.90;;;;;;5102039;28;20051;-66
2021/12/19 02:31:14;;;;;;;5.20;1.00;;;7.00;99.90;;;;;;5111272;28;20035;-66
2021/12/19 02:33:43;;;;;;;2.72;1.13;;;6.90;99.90;;;;;;5099654;28;20038;-66
2021/12/19 02:49:05;;;;;;;5.10;1.00;;;6.90;99.90;;;;;;5096627;28;20044;-66
2021/12/19 02:51:34;;;;;;;4.57;1.20;;;6.90;99.90;;;;;;5084742;28;20118;-66
2021/12/19 02:54:00;;;;;;;4.47;1.40;;;6.90;99.90;;;;;;5076605;28;20401;-67
2021/12/19 02:56:27;;;;;;;2.70;0.98;;;6.90;99.90;;;;;;5096934;28;20098;-65
2021/12/19 02:58:53;;;;;;;6.47;1.17;;;6.90;99.90;;;;;;5086121;28;20051;-67
2021/12/19 03:01:20;;;;;;;2.58;1.27;;;6.80;99.90;;;;;;5104743;28;20054;-66
2021/12/19 03:03:47;;;;;;;2.38;1.13;;;6.80;99.90;;;;;;5109530;28;20071;-65
2021/12/19 03:06:13;;;;;;;6.97;1.48;;;6.80;99.90;;;;;;5106745;28;20572;-66
2021/12/19 03:08:44;;;;;;;4.70;1.70;;;6.80;99.90;;;;;;5095045;28;20035;-66
2021/12/19 03:19:28;;;;;;;8.02;2.47;;;6.80;99.90;;;;;;5107112;28;20048;-66
2021/12/19 03:21:54;;;;;;;6.40;2.05;;;6.80;99.90;;;;;;5097308;28;20363;-66
2021/12/19 03:24:19;;;;;;;10.55;2.25;;;6.80;99.90;;;;;;5101009;28;20036;-65
2021/12/19 03:26:45;;;;;;;4.20;1.33;;;6.90;99.90;;;;;;5083533;28;20119;-65
2021/12/19 03:29:11;;;;;;;4.10;1.30;;;6.80;99.90;;;;;;5099240;28;20438;-66
2021/12/19 03:31:37;;;;;;;5.75;1.63;;;6.80;99.90;;;;;;5104917;28;20131;-66
2021/12/19 03:34:02;;;;;;;6.68;1.92;;;6.80;99.90;;;;;;5099630;28;20078;-65
2021/12/19 03:36:28;;;;;;;8.15;2.10;;;6.80;99.90;;;;;;5103932;28;20047;-66
2021/12/19 03:38:58;;;;;;;5.20;1.77;;;6.80;99.90;;;;;;5099748;28;20039;-66
2021/12/19 03:41:33;;;;;;;9.70;2.08;;;6.70;99.90;;;;;;5113149;28;20046;-65
2021/12/19 03:44:01;;;;;;;5.28;1.42;;;6.80;99.90;;;;;;5088468;28;20474;-65
2021/12/19 03:46:26;;;;;;;8.82;1.67;;;6.70;99.90;;;;;;5081398;28;20079;-67
2021/12/19 03:48:52;;;;;;;5.45;1.63;;;6.70;99.90;;;;;;5096083;28;20493;-66
2021/12/19 03:51:18;;;;;;;7.03;1.70;;;6.70;99.90;;;;;;5107945;27;20044;-65
2021/12/19 03:53:43;;;;;;;12.73;1.90;;;6.70;99.90;;;;;;5092601;28;20043;-66
2021/12/19 03:56:09;;;;;;;7.90;1.88;;;6.70;99.90;;;;;;5105379;28;20035;-67
2021/12/19 03:58:34;;;;;;;12.45;2.30;;;6.70;99.90;;;;;;5109759;28;20493;-66
2021/12/19 04:01:04;;;;;;;10.38;2.38;;;6.70;99.90;;;;;;5110242;28;20048;-67
2021/12/19 04:03:30;;;;;;;6.03;2.42;;;6.80;99.90;;;;;;5108978;28;20127;-66
2021/12/19 04:05:56;;;;;;;7.25;2.60;;;6.70;99.90;;;;;;5107543;28;20165;-66
2021/12/19 04:08:21;;;;;;;9.00;3.22;;;6.80;99.90;;;;;;5098084;28;20035;-66
2021/12/19 04:10:48;;;;;;;16.70;3.42;;;6.80;99.90;;;;;;5112064;28;20457;-66
2021/12/19 04:13:15;;;;;;;15.68;3.88;;;6.80;99.90;;;;;;5092946;28;20108;-66
2021/12/19 04:15:41;;;;;;;20.80;3.90;;;6.90;99.90;;;;;;5098663;28;20354;-65
2021/12/19 04:18:07;;;;;;;18.33;3.50;;;6.90;99.90;;;;;;5098987;28;20043;-65
2021/12/19 04:20:32;;;;;;;19.23;3.50;;;6.90;99.90;;;;;;5098353;28;20477;-67
2021/12/19 04:22:58;;;;;;;14.20;3.30;;;6.90;99.90;;;;;;5111838;28;20454;-68
2021/12/19 04:25:24;;;;;;;13.85;3.53;;;6.90;99.90;;;;;;5102544;28;20039;-66
2021/12/19 04:27:49;;;;;;;26.95;4.13;;;6.90;99.90;;;;;;5098185;28;20506;-66
2021/12/19 04:30:19;;;;;;;22.73;4.80;;;6.90;99.90;;;;;;5103386;28;20529;-67
2021/12/19 04:32:45;;;;;;;15.43;4.47;;;6.90;99.90;;;;;;5109615;28;20487;-67
2021/12/19 04:35:12;;;;;;;21.40;4.80;;;7.00;99.90;;;;;;5106598;28;20036;-66
2021/12/19 04:40:22;;;;;;;18.67;5.05;;;7.00;99.90;;;;;;5102839;28;20505;-66
2021/12/19 04:43:15;;;;;;;22.17;5.53;;;7.00;99.90;;;;;;5111674;28;20047;-67
2021/12/19 04:53:54;;;;;;;21.00;6.50;;;7.10;99.90;;;;;;5101273;28;20048;-64
2021/12/19 05:01:44;;;;;;;25.42;6.82;;;7.10;99.90;;;;;;5102431;28;20046;-66
2021/12/19 05:04:23;;;;;;;16.55;5.43;;;7.10;99.90;;;;;;5073942;28;20056;-66
2021/12/19 05:14:07;;;;;;;30.45;6.80;;;7.10;99.90;;;;;;5096038;28;20047;-66
2021/12/19 05:15:04;;;;;;;26.88;7.13;;;7.10;99.90;;;;;;5096133;28;20123;-66
2021/12/19 05:17:31;;;;;;;20.80;6.18;;;7.10;99.90;;;;;;5111452;28;20131;-66
2021/12/19 05:20:09;;;;;;;30.17;7.38;;;7.10;99.90;;;;;;5108702;28;20486;-67
2021/12/19 05:22:43;;;;;;;32.53;7.97;;;7.10;99.90;;;;;;5100428;28;20044;-66
2021/12/19 05:25:17;;;;;;;30.48;7.72;;;7.10;99.90;;;;;;5097919;28;20573;-66
2021/12/19 05:27:48;;;;;;;19.92;7.20;;;7.10;99.90;;;;;;5106805;28;20476;-66
2021/12/19 05:30:15;;;;;;;20.05;7.53;;;7.10;99.90;;;;;;5091412;28;20086;-66
2021/12/19 05:32:42;;;;;;;20.58;7.65;;;7.10;99.90;;;;;;5091886;28;20482;-66
2021/12/19 05:35:09;;;;;;;31.02;8.35;;;7.10;99.90;;;;;;5094556;28;20506;-66
2021/12/19 05:45:49;;;;;;;23.50;6.28;;;7.10;99.90;;;;;;5096945;28;20401;-66
2021/12/19 05:48:14;;;;;;;23.48;7.07;;;7.20;99.90;;;;;;5091046;28;20039;-66
2021/12/19 05:50:40;;;;;;;16.95;6.60;;;7.20;99.90;;;;;;5080020;28;20122;-66
2021/12/19 05:53:07;;;;;;;28.70;6.72;;;7.10;99.90;;;;;;5099812;28;20048;-65
2021/12/19 05:55:32;;;;;;;20.52;6.60;;;7.10;99.90;;;;;;5105695;28;20047;-66
2021/12/19 05:57:58;;;;;;;31.55;6.72;;;7.10;99.90;;;;;;5106347;28;20062;-66
2021/12/19 06:00:24;;;;;;;20.13;6.60;;;7.10;99.90;;;;;;5108457;28;20055;-66
2021/12/19 06:02:50;;;;;;;23.63;6.03;;;7.10;99.90;;;;;;5095130;28;20047;-66
2021/12/19 06:05:16;;;;;;;14.40;6.03;;;7.10;99.90;;;;;;5092404;28;20443;-66
2021/12/19 06:07:42;;;;;;;17.67;6.32;;;7.10;99.90;;;;;;5088940;28;20050;-65
2021/12/19 06:10:09;;;;;;;19.67;5.93;;;7.10;99.90;;;;;;5108252;28;20523;-66
2021/12/19 06:12:37;;;;;;;16.48;5.75;;;7.10;99.90;;;;;;5091161;28;20032;-66
2021/12/19 06:15:03;;;;;;;18.42;5.93;;;7.10;99.90;;;;;;5107052;28;20047;-66
2021/12/19 06:17:28;;;;;;;26.25;6.43;;;7.10;99.90;;;;;;5109133;28;20478;-67
2021/12/19 06:19:54;;;;;;;19.05;6.68;;;7.10;99.90;;;;;;5099158;28;20040;-66
2021/12/19 06:22:19;;;;;;;30.73;7.22;;;7.10;99.90;;;;;;5113679;28;20047;-66
2021/12/19 06:24:45;;;;;;;24.85;7.32;;;7.10;99.90;;;;;;5098954;28;20043;-66
2021/12/19 06:27:11;;;;;;;23.52;6.35;;;7.10;99.90;;;;;;5098498;28;20124;-65
2021/12/19 06:29:36;;;;;;;19.88;5.18;;;7.10;99.90;;;;;;5105485;28;20040;-66
2021/12/19 06:32:02;;;;;;;19.80;5.35;;;7.10;99.90;;;;;;5114425;28;20081;-67
2021/12/19 06:34:28;;;;;;;25.17;5.50;;;7.10;99.90;;;;;;5110095;28;20043;-66
2021/12/19 06:36:53;;;;;;;22.42;4.93;;;7.10;99.90;;;;;;5100259;28;20135;-65
2021/12/19 06:39:20;;;;;;;27.67;5.93;;;7.10;99.90;;;;;;5104913;28;20131;-66
2021/12/19 06:41:46;;;;;;;24.58;4.55;;;7.10;99.90;;;;;;5102180;28;20051;-66
2021/12/19 06:44:12;;;;;;;19.58;5.38;;;7.10;99.90;;;;;;5107542;28;20048;-67
2021/12/19 06:46:38;;;;;;;22.70;4.82;;;7.10;99.90;;;;;;5129706;27;20040;-66
2021/12/19 06:49:04;;;;;;;19.40;5.00;;;7.10;99.90;;;;;;5110187;28;20397;-66
2021/12/19 06:51:33;;;;;;;22.98;4.25;;;7.10;99.90;;;;;;5104515;28;20134;-66
2021/12/19 06:53:59;;;;;;;19.13;4.63;;;7.00;99.90;;;;;;5095994;28;20048;-66
2021/12/19 06:56:26;;;;;;;15.68;4.60;;;7.00;99.90;;;;;;5092197;28;20447;-67
2021/12/19 06:58:51;;;;;;;18.77;4.55;;;7.00;99.90;;;;;;5099522;28;20055;-68
2021/12/19 07:01:17;;;;;;;20.08;3.80;;;7.00;99.90;;;;;;5083167;28;20044;-67
2021/12/19 07:03:43;;;;;;;14.93;4.13;;;7.10;99.90;;;;;;5106942;28;20052;-66
2021/12/19 07:06:09;;;;;;;13.60;3.47;;;7.10;99.90;;;;;;5093734;28;20059;-65
2021/12/19 07:08:35;;;;;;;27.10;4.35;;;7.10;99.90;;;;;;5081640;28;20039;-67
2021/12/19 07:11:00;;;;;;;19.48;3.40;;;7.10;99.90;;;;;;5079378;28;20071;-66
2021/12/19 07:13:26;;;;;;;18.15;4.07;;;7.10;99.90;;;;;;5093831;28;20052;-68
2021/12/19 07:15:53;;;;;;;16.23;3.33;;;7.10;99.90;;;;;;5110026;28;20055;-65
2021/12/19 07:18:19;;;;;;;14.35;3.20;;;7.10;99.90;;;;;;5100065;28;20481;-64
2021/12/19 07:20:45;;;;;;;19.25;4.00;;;7.10;99.90;;;;;;5076998;28;20146;-66
2021/12/19 07:23:21;;;;;;;17.85;4.47;;;7.10;99.90;;;;;;5106500;28;20154;-67
2021/12/19 07:25:47;;;;;;;18.73;4.30;;;7.10;99.90;;;;;;5102476;28;20036;-66
2021/12/19 07:28:13;;;;;;;29.25;5.07;;;7.10;99.90;;;;;;5094540;28;20150;-66
2021/12/19 07:30:40;;;;;;;22.85;4.10;;;7.20;99.90;;;;;;5105159;28;20575;-65
2021/12/19 07:33:07;;;;;;;22.30;5.15;;;7.20;99.90;;;;;;5113154;28;20078;-66
2021/12/19 07:35:37;;;;;;;21.52;4.35;;;7.20;99.90;;;;;;5106095;28;20120;-65
2021/12/19 07:38:09;;;;;;;26.30;4.20;;;7.20;99.90;;;;;;5095825;28;20044;-65
2021/12/19 07:40:39;;;;;;;22.88;4.47;;;7.20;99.90;;;;;;5101411;28;20044;-66
2021/12/19 07:43:10;;;;;;;26.17;4.95;;;7.20;99.90;;;;;;5104267;28;20048;-66
2021/12/19 07:45:36;;;;;;;21.80;4.32;;;7.20;99.90;;;;;;5092885;28;20055;-66
2021/12/19 07:48:03;;;;;;;24.45;4.10;;;7.20;99.90;;;;;;5112605;28;20044;-66
2021/12/19 07:50:30;;;;;;;28.63;4.97;;;7.20;99.90;;;;;;5107518;28;20104;-67
2021/12/19 07:52:57;;;;;;;29.58;5.25;;;7.20;99.90;;;;;;5092558;28;20056;-66
2021/12/19 07:55:23;;;;;;;19.13;4.05;;;7.20;99.90;;;;;;5104468;28;20046;-66
2021/12/19 07:57:50;;;;;;;26.98;5.38;;;7.20;99.90;;;;;;5104630;28;20047;-66
2021/12/19 08:00:18;;;;;;;24.45;4.75;;;7.20;99.90;;;;;;5075063;28;20047;-66
2021/12/19 08:02:46;;;;;;;27.15;5.10;;;7.20;99.90;;;;;;5074486;28;20040;-67
2021/12/19 08:05:13;;;;;;;18.05;4.07;;;7.20;99.90;;;;;;5098341;28;20063;-66
2021/12/19 08:07:40;;;;;;;20.42;4.50;;;7.20;99.90;;;;;;5103813;28;20040;-66
2021/12/19 08:12:36;;;;;;;21.27;3.60;;;7.20;99.90;;;;;;5107697;28;20116;-66
2021/12/19 08:15:06;;;;;;;22.35;3.78;;;7.20;99.90;;;;;;5122616;27;20069;-66
2021/12/19 08:17:32;;;;;;;21.20;2.90;;;7.20;99.90;;;;;;5085572;28;20492;-66
2021/12/19 08:19:58;;;;;;;17.13;3.65;;;7.20;99.90;;;;;;5094897;28;20048;-66
2021/12/19 08:22:26;;;;;;;19.27;4.30;;;7.20;99.90;;;;;;5082900;27;20064;-66
2021/12/19 08:24:52;;;;;;;22.83;4.17;;;7.20;99.90;;;;;;5114557;27;20046;-66
2021/12/19 08:27:18;;;;;;;13.68;3.20;;;7.20;99.90;;;;;;5101762;28;20416;-66
2021/12/19 08:29:46;;;;;;;19.83;3.47;;;7.20;99.90;;;;;;5104995;28;20039;-65
2021/12/19 08:32:11;;;;;;;17.37;4.00;;;7.30;99.90;;;;;;5112512;28;20058;-65
2021/12/19 08:34:37;;;;;;;14.30;4.10;;;7.20;99.90;;;;;;5111801;28;20480;-65
2021/12/19 08:37:03;;;;;;;28.58;4.05;;;7.30;99.90;;;;;;5095829;28;20031;-65
2021/12/19 08:39:31;;;;;;;20.67;3.90;;;7.30;99.90;;;;;;5112106;28;20127;-67
2021/12/19 08:41:57;;;;;;;19.65;3.95;;;7.30;99.90;;;;;;5111993;28;20489;-65
2021/12/19 08:44:23;;;;;;;17.25;3.10;;;7.30;99.90;;;;;;5110449;28;20047;-66
2021/12/19 08:46:49;;;;;;;16.55;3.05;;;7.30;99.90;;;;;;5103195;27;20034;-66
2021/12/19 08:49:15;;;;;;;22.50;4.68;;;7.30;99.90;;;;;;5096944;27;20477;-66
2021/12/19 08:51:40;;;;;;;26.27;4.47;;;7.30;99.90;;;;;;5108851;28;20110;-66
2021/12/19 08:54:07;;;;;;;22.60;3.65;;;7.30;99.90;;;;;;5098528;28;20397;-65
2021/12/19 08:56:33;;;;;;;16.27;3.67;;;7.30;99.90;;;;;;5091859;28;20044;-65
2021/12/19 08:58:59;;;;;;;23.73;4.43;;;7.30;99.90;;;;;;5095305;28;20420;-66
2021/12/19 09:01:26;;;;;;;17.80;3.63;;;7.30;99.90;;;;;;5111900;27;20119;-66
2021/12/19 09:03:51;;;;;;;16.25;4.13;;;7.30;99.90;;;;;;5107724;28;20118;-66
2021/12/19 09:06:17;;;;;;;21.60;3.08;;;7.40;99.90;;;;;;5111099;28;20098;-66
2021/12/19 09:08:42;;;;;;;19.40;4.10;;;7.40;99.90;;;;;;5110046;28;20094;-66
2021/12/19 09:11:08;;;;;;;21.95;3.63;;;7.40;99.90;;;;;;5104282;28;20222;-67
2021/12/19 09:13:34;;;;;;;21.15;4.10;;;7.40;99.90;;;;;;5107588;28;20062;-66
2021/12/19 09:16:00;;;;;;;16.65;3.92;;;7.40;99.90;;;;;;5096768;28;20441;-67
2021/12/19 09:18:28;;;;;;;13.57;3.20;;;7.50;99.90;;;;;;5101085;28;20036;-67
2021/12/19 09:20:54;;;;;;;25.38;4.30;;;7.50;99.90;;;;;;5102581;28;20183;-67
2021/12/19 09:23:20;;;;;;;21.13;3.72;;;7.50;99.90;;;;;;5108146;28;20509;-68
2021/12/19 09:25:46;;;;;;;25.10;4.00;;;7.50;99.90;;;;;;5111339;28;20078;-65
2021/12/19 09:28:12;;;;;;;23.20;4.15;;;7.50;99.90;;;;;;5082528;28;20162;-65
2021/12/19 09:30:38;;;;;;;21.77;4.07;;;7.50;99.90;;;;;;5091499;28;20443;-66
2021/12/19 09:33:04;;;;;;;24.50;4.70;;;7.50;99.90;;;;;;5091161;28;20118;-66
2021/12/19 09:35:30;;;;;;;26.95;4.63;;;7.50;99.90;;;;;;5074113;28;20040;-67
2021/12/19 09:37:56;;;;;;;37.70;5.18;;;7.50;99.90;;;;;;5056370;28;20139;-67
2021/12/19 09:40:31;;;;;;;30.30;4.78;;;7.50;99.90;;;;;;5081212;28;20044;-67
2021/12/19 09:43:01;;;;;;;24.58;4.85;;;7.60;99.90;;;;;;5111736;28;20393;-66
2021/12/19 09:45:28;;;;;;;34.85;5.30;;;7.50;99.90;;;;;;5110902;28;20081;-67
2021/12/19 09:47:54;;;;;;;28.35;4.90;;;7.50;99.90;;;;;;5095425;28;20051;-66
2021/12/19 09:50:20;;;;;;;19.67;4.40;;;7.50;99.90;;;;;;5095398;28;20040;-65
2021/12/19 09:52:46;;;;;;;25.83;4.13;;;7.50;99.90;;;;;;5095085;28;20482;-65
2021/12/19 09:55:17;;;;;;;17.67;3.85;;;7.60;99.90;;;;;;5102729;28;20043;-65
2021/12/19 09:57:43;;;;;;;20.35;4.32;;;7.50;99.90;;;;;;5115204;28;20393;-65
2021/12/19 10:00:09;;;;;;;28.67;4.63;;;7.50;99.90;;;;;;5078046;28;20043;-65
2021/12/19 10:02:35;;;;;;;21.13;3.67;;;7.50;99.90;;;;;;5114747;28;20051;-66
2021/12/19 10:05:16;;;;;;;21.95;4.07;;;7.60;99.90;;;;;;5096301;28;20043;-67
2021/12/19 10:08:12;;;;;;;24.23;3.67;;;7.60;99.90;;;;;;5115372;28;20040;-65
2021/12/19 10:10:54;;;;;;;13.52;3.33;;;7.60;99.90;;;;;;5110591;28;20509;-67
2021/12/19 10:13:33;;;;;;;23.45;3.20;;;7.60;99.90;;;;;;5113389;28;20048;-65
2021/12/19 10:16:00;;;;;;;20.48;3.22;;;7.70;99.90;;;;;;5096585;28;20132;-66
2021/12/19 10:18:25;;;;;;;13.77;2.47;;;7.70;99.90;;;;;;5114981;28;20043;-66
2021/12/19 10:20:57;;;;;;;17.75;3.42;;;7.70;99.90;;;;;;5130656;27;20142;-65
2021/12/19 10:23:26;;;;;;;18.30;2.67;;;7.70;99.90;;;;;;5092097;28;20135;-65
2021/12/19 10:26:01;;;;;;;16.35;3.05;;;7.60;99.90;;;;;;5094265;28;20118;-66
2021/12/19 10:28:27;;;;;;;18.15;2.80;;;7.60;99.90;;;;;;5109683;28;20118;-66
2021/12/19 10:30:53;;;;;;;16.27;3.15;;;7.60;99.90;;;;;;5101034;28;20047;-66
2021/12/19 10:33:22;;;;;;;11.95;2.85;;;7.60;99.90;;;;;;5096105;28;20054;-65
2021/12/19 10:35:51;;;;;;;17.05;3.13;;;7.70;99.90;;;;;;5110843;28;20035;-66
2021/12/19 10:38:22;;;;;;;19.40;3.45;;;7.70;99.90;;;;;;5085807;28;20090;-67
2021/12/19 10:40:50;;;;;;;14.93;3.33;;;7.80;99.90;;;;;;5104745;28;20122;-66
2021/12/19 10:43:17;;;;;;;12.32;2.30;;;7.70;99.90;;;;;;5087236;28;20139;-67
2021/12/19 10:45:56;;;;;;;21.55;3.65;;;7.80;99.90;;;;;;5100853;28;20059;-66
2021/12/19 10:48:41;;;;;;;13.05;3.00;;;7.90;99.90;;;;;;5110887;28;20058;-67
2021/12/19 10:51:16;;;;;;;14.38;2.85;;;7.80;99.90;;;;;;5083396;28;20044;-66
2021/12/19 10:53:56;;;;;;;12.27;2.60;;;7.80;99.90;;;;;;5108309;28;20150;-66
2021/12/19 10:56:23;;;;;;;16.00;2.65;;;7.90;99.90;;;;;;5084096;27;20051;-65
2021/12/19 10:58:57;;;;;;;17.42;2.50;;;7.80;99.90;;;;;;5134683;27;20119;-64
2021/12/19 11:01:41;;;;;;;16.98;2.92;;;7.80;99.90;;;;;;5100837;28;20044;-65
2021/12/19 11:04:20;;;;;;;11.60;2.50;;;7.90;99.90;;;;;;5104489;28;20043;-65
2021/12/19 11:06:48;;;;;;;17.52;4.25;;;7.90;99.90;;;;;;5082251;28;20714;-66
2021/12/19 11:09:16;;;;;;;16.38;2.90;;;7.90;99.90;;;;;;5107429;28;20043;-65
2021/12/19 11:11:56;;;;;;;17.85;3.50;;;7.90;99.90;;;;;;5106201;28;20054;-66
2021/12/19 11:14:34;;;;;;;21.02;3.88;;;7.90;99.90;;;;;;5103503;28;20039;-65
2021/12/19 11:17:18;;;;;;;22.40;3.42;;;7.90;99.90;;;;;;5089650;28;20489;-64
2021/12/19 11:19:44;;;;;;;11.80;3.22;;;8.00;99.90;;;;;;5093174;28;20070;-65
2021/12/19 11:22:11;;;;;;;23.60;4.13;;;8.00;99.90;;;;;;5093545;28;20537;-65
2021/12/19 11:24:37;;;;;;;21.23;3.67;;;7.90;99.90;;;;;;5099841;28;20074;-65
2021/12/19 11:27:06;;;;;;;20.98;3.60;;;7.90;99.90;;;;;;5111267;28;20075;-66
2021/12/19 11:29:32;;;;;;;16.25;3.13;;;8.00;99.90;;;;;;5113525;28;20115;-65
2021/12/19 11:32:01;;;;;;;20.15;3.80;;;8.40;99.90;;;;;;5112732;28;20143;-64
2021/12/19 11:34:47;;;;;;;15.35;3.35;;;8.00;99.90;;;;;;5112628;28;20244;-65
2021/12/19 11:37:18;;;;;;;23.63;3.80;;;8.00;99.90;;;;;;5110763;28;20039;-65
2021/12/19 11:39:50;;;;;;;30.98;3.95;;;8.00;99.90;;;;;;5094342;28;20046;-65
2021/12/19 11:42:39;;;;;;;27.33;3.50;;;8.00;99.90;;;;;;5113291;28;20093;-65
2021/12/19 11:47:57;;;;;;;15.55;3.58;;;8.10;99.90;;;;;;5092688;28;20417;-65
2021/12/19 11:50:29;;;;;;;19.63;4.07;;;8.10;99.90;;;;;;5092766;28;20112;-64
2021/12/19 11:53:08;;;;;;;20.83;3.67;;;8.10;99.90;;;;;;5092532;28;20036;-65
2021/12/19 11:55:39;;;;;;;20.58;3.30;;;8.10;99.90;;;;;;5105555;28;20092;-65
2021/12/19 11:58:08;;;;;;;25.70;3.38;;;8.10;99.90;;;;;;5093871;28;20123;-66
2021/12/19 12:00:44;;;;;;;17.20;2.55;;;8.20;99.90;;;;;;5113039;28;20346;-65
2021/12/19 12:03:12;;;;;;;23.30;4.30;;;8.20;99.90;;;;;;5109354;28;20478;-65
2021/12/19 12:05:39;;;;;;;;;;;8.20;99.90;;;;;;5105785;28;20139;-65
2021/12/19 12:08:04;;;;;;;24.52;4.22;;;8.20;99.90;;;;;;5091919;28;20380;-65
2021/12/19 12:10:57;;;;;;;21.90;4.00;;;8.20;99.90;;;;;;5089967;28;20232;-66
2021/12/19 12:13:25;;;;;;;21.92;4.70;;;8.20;99.90;;;;;;5098169;28;20059;-64
2021/12/19 12:15:54;;;;;;;20.52;3.90;;;8.20;99.90;;;;;;5109281;28;20074;-64
2021/12/19 12:18:32;;;;;;;23.00;3.92;;;8.20;99.90;;;;;;5108153;28;20089;-65
2021/12/19 12:21:52;;;;;;;26.13;3.42;;;8.20;99.90;;;;;;5103943;28;20497;-66
2021/12/19 12:24:13;;;;;;;18.15;4.07;;;8.30;99.90;;;;;;5101814;28;20047;-65
2021/12/19 12:26:50;;;;;;;;;;;8.30;99.90;;;;;;5109173;28;20431;-66
2021/12/19 12:29:16;;;;;;;22.92;4.28;;;8.20;99.90;;;;;;5108949;28;19978;-66
2021/12/19 12:31:45;;;;;;;22.70;4.13;;;8.20;99.90;;;;;;5108899;28;20482;-67
2021/12/19 12:34:14;;;;;;;28.90;3.92;;;8.20;99.90;;;;;;5096368;28;20051;-66
2021/12/19 12:36:39;;;;;;;;;;;8.20;99.90;;;;;;5108422;28;20096;-66
2021/12/19 12:39:10;;;;;;;30.20;3.88;;;8.20;99.90;;;;;;5058144;28;19932;-66
2021/12/19 12:44:22;;;;;;;24.50;3.33;;;8.20;99.90;;;;;;5075616;28;20055;-66
2021/12/19 12:46:50;;;;;;;26.60;3.50;;;8.20;99.90;;;;;;5094549;28;20082;-66
2021/12/19 12:49:26;;;;;;;17.55;3.42;;;8.10;99.90;;;;;;5107653;28;20142;-65
2021/12/19 12:51:57;;;;;;;34.90;5.28;;;8.10;99.90;;;;;;5104019;28;20086;-66
2021/12/19 12:54:36;;;;;;;24.90;4.38;;;8.10;99.90;;;;;;5108605;28;20056;-66
2021/12/19 12:57:10;;;;;;;30.38;5.43;;;8.10;99.90;;;;;;5093091;28;20097;-65
2021/12/19 12:59:39;;;;;;;23.27;3.70;;;8.10;99.90;;;;;;5108656;28;20047;-66
2021/12/19 13:02:20;;;;;;;32.35;4.05;;;8.10;99.90;;;;;;5105438;28;20059;-66
2021/12/19 13:04:48;;;;;;;39.10;5.65;;;8.10;99.90;;;;;;5108617;28;20055;-66
2021/12/19 13:07:15;;;;;;;20.73;4.40;;;8.10;99.90;;;;;;5107742;28;20043;-66
2021/12/19 13:09:55;;;;;;;30.35;3.97;;;8.10;99.90;;;;;;5107156;28;20054;-65
2021/12/19 13:12:23;;;;;;;24.38;4.28;;;8.10;99.90;;;;;;5105654;28;20073;-65
2021/12/19 13:14:53;;;;;;;29.55;4.30;;;8.00;99.90;;;;;;5108434;28;20052;-65
2021/12/19 13:17:24;;;;;;;31.70;5.00;;;8.00;99.90;;;;;;5104265;28;20047;-67
2021/12/19 13:19:50;;;;;;;25.88;4.53;;;8.00;99.90;;;;;;5093991;28;20092;-66
2021/12/19 13:22:21;;;;;;;24.65;4.18;;;8.00;99.90;;;;;;5106120;28;20400;-66
2021/12/19 13:24:48;;;;;;;24.17;3.80;;;8.00;99.90;;;;;;5094114;28;20039;-65
2021/12/19 13:27:24;;;;;;;21.17;3.67;;;8.00;99.90;;;;;;5089137;28;20439;-67
2021/12/19 13:29:56;;;;;;;18.92;3.80;;;8.00;99.90;;;;;;5085799;28;20200;-66
2021/12/19 13:32:22;;;;;;;21.90;3.47;;;8.10;99.90;;;;;;5087615;28;20447;-66
2021/12/19 13:34:49;;;;;;;22.10;3.80;;;8.10;99.90;;;;;;5069617;28;20051;-67
2021/12/19 13:37:15;;;;;;;20.60;3.22;;;8.10;99.90;;;;;;5077464;28;20127;-66
2021/12/19 13:39:42;;;;;;;21.60;3.58;;;8.20;99.90;;;;;;5096850;28;20438;-65
2021/12/19 13:42:13;;;;;;;22.33;3.08;;;8.20;99.90;;;;;;5108245;28;20050;-66
2021/12/19 13:44:39;;;;;;;21.70;3.17;;;8.20;99.90;;;;;;5107098;28;20055;-66
2021/12/19 13:47:13;;;;;;;20.38;3.95;;;8.20;99.90;;;;;;5108580;28;20047;-65
2021/12/19 13:49:39;;;;;;;21.70;3.58;;;8.20;99.90;;;;;;5107338;28;20095;-66
2021/12/19 13:52:07;;;;;;;24.83;4.75;;;8.20;99.90;;;;;;5106323;28;20084;-65
2021/12/19 13:54:34;;;;;;;21.10;4.32;;;8.20;99.90;;;;;;5107498;28;20444;-66
2021/12/19 13:57:00;;;;;;;20.23;3.57;;;8.30;99.90;;;;;;5105913;28;20118;-66
2021/12/19 13:59:27;;;;;;;21.65;3.45;;;8.20;99.90;;;;;;5104904;28;20289;-66
2021/12/19 14:01:54;;;;;;;22.98;3.00;;;8.30;99.90;;;;;;5089518;28;20124;-66
2021/12/19 14:04:25;;;;;;;27.35;3.95;;;8.30;99.90;;;;;;5105603;28;20073;-66